sensor_id;sensor_type;location;lat;lon;timestamp;pressure;altitude;pressure_sealevel;temperature;humidity
24031;BME280;12240;51.142;22.486;2023-04-25T00:00:37;98196.41;;;10.56;100.00
24031;BME280;12240;51.142;22.486;2023-04-25T00:03:05;98188.50;;;10.48;100.00
24031;BME280;12240;51.142;22.486;2023-04-25T00:05:33;98193.53;;;10.43;100.00
24031;BME280;12240;51.142;22.486;2023-04-25T00:08:03;98188.63;;;10.32;100.00
24031;BME280;12240;51.142;22.486;2023-04-25T00:10:31;98190.53;;;10.24;100.00
24031;BME280;12240;51.142;22.486;2023-04-25T00:12:59;98186.63;;;10.12;100.00
24031;BME280;12240;51.142;22.486;2023-04-25T00:15:30;98186.03;;;10.02;100.00
24031;BME280;12240;51.142;22.486;2023-04-25T00:17:58;98188.38;;;9.97;100.00
24031;BME280;12240;51.142;22.486;2023-04-25T00:20:26;98190.03;;;9.98;100.00
24031;BME280;12240;51.142;22.486;2023-04-25T00:22:55;98197.03;;;9.99;100.00
24031;BME280;12240;51.142;22.486;2023-04-25T00:25:24;98187.56;;;9.96;100.00
24031;BME280;12240;51.142;22.486;2023-04-25T00:27:52;98183.00;;;10.05;100.00
24031;BME280;12240;51.142;22.486;2023-04-25T00:30:20;98178.00;;;10.10;100.00
24031;BME280;12240;51.142;22.486;2023-04-25T00:32:48;98180.44;;;10.19;100.00
24031;BME280;12240;51.142;22.486;2023-04-25T00:35:17;98181.84;;;10.30;100.00
24031;BME280;12240;51.142;22.486;2023-04-25T00:37:45;98182.59;;;10.38;100.00
24031;BME280;12240;51.142;22.486;2023-04-25T00:40:13;98175.84;;;10.50;100.00
24031;BME280;12240;51.142;22.486;2023-04-25T00:42:42;98177.13;;;10.54;100.00
24031;BME280;12240;51.142;22.486;2023-04-25T00:45:14;98176.13;;;10.55;100.00
24031;BME280;12240;51.142;22.486;2023-04-25T00:47:45;98165.38;;;10.64;100.00
24031;BME280;12240;51.142;22.486;2023-04-25T00:50:14;98165.00;;;10.67;100.00
24031;BME280;12240;51.142;22.486;2023-04-25T00:52:44;98165.47;;;10.70;100.00
24031;BME280;12240;51.142;22.486;2023-04-25T00:55:13;98156.38;;;10.65;100.00
24031;BME280;12240;51.142;22.486;2023-04-25T00:57:43;98161.38;;;10.68;100.00
24031;BME280;12240;51.142;22.486;2023-04-25T01:00:12;98160.63;;;10.74;100.00
24031;BME280;12240;51.142;22.486;2023-04-25T01:02:44;98168.97;;;10.71;100.00
24031;BME280;12240;51.142;22.486;2023-04-25T01:05:13;98173.75;;;10.61;100.00
24031;BME280;12240;51.142;22.486;2023-04-25T01:07:41;98170.63;;;10.57;100.00
24031;BME280;12240;51.142;22.486;2023-04-25T01:10:10;98172.16;;;10.51;100.00
24031;BME280;12240;51.142;22.486;2023-04-25T01:12:38;98163.81;;;10.40;100.00
24031;BME280;12240;51.142;22.486;2023-04-25T01:15:07;98171.31;;;10.36;100.00
24031;BME280;12240;51.142;22.486;2023-04-25T01:17:35;98165.13;;;10.21;100.00
24031;BME280;12240;51.142;22.486;2023-04-25T01:20:07;98167.38;;;10.10;100.00
24031;BME280;12240;51.142;22.486;2023-04-25T01:22:37;98168.91;;;10.04;100.00
24031;BME280;12240;51.142;22.486;2023-04-25T01:25:07;98157.59;;;10.02;100.00
24031;BME280;12240;51.142;22.486;2023-04-25T01:27:36;98158.97;;;9.98;100.00
24031;BME280;12240;51.142;22.486;2023-04-25T01:30:06;98154.13;;;10.02;100.00
24031;BME280;12240;51.142;22.486;2023-04-25T01:32:36;98157.59;;;10.02;100.00
24031;BME280;12240;51.142;22.486;2023-04-25T01:35:09;98149.97;;;9.99;100.00
24031;BME280;12240;51.142;22.486;2023-04-25T01:37:41;98158.78;;;10.00;100.00
24031;BME280;12240;51.142;22.486;2023-04-25T01:40:13;98148.69;;;9.95;100.00
24031;BME280;12240;51.142;22.486;2023-04-25T01:42:43;98150.69;;;9.93;100.00
24031;BME280;12240;51.142;22.486;2023-04-25T01:45:12;98156.19;;;9.69;100.00
24031;BME280;12240;51.142;22.486;2023-04-25T01:47:41;98151.22;;;9.66;100.00
24031;BME280;12240;51.142;22.486;2023-04-25T01:50:10;98150.38;;;9.66;100.00
24031;BME280;12240;51.142;22.486;2023-04-25T01:52:39;98154.09;;;9.57;100.00
24031;BME280;12240;51.142;22.486;2023-04-25T01:55:09;98159.22;;;9.58;100.00
24031;BME280;12240;51.142;22.486;2023-04-25T01:57:43;98153.09;;;9.58;100.00
24031;BME280;12240;51.142;22.486;2023-04-25T02:00:12;98152.44;;;9.56;100.00
24031;BME280;12240;51.142;22.486;2023-04-25T02:02:40;98145.94;;;9.58;100.00
24031;BME280;12240;51.142;22.486;2023-04-25T02:05:33;98151.72;;;9.62;100.00
24031;BME280;12240;51.142;22.486;2023-04-25T02:08:01;98144.41;;;9.64;100.00
24031;BME280;12240;51.142;22.486;2023-04-25T02:10:30;98142.78;;;9.63;100.00
24031;BME280;12240;51.142;22.486;2023-04-25T02:13:13;98140.31;;;9.61;100.00
24031;BME280;12240;51.142;22.486;2023-04-25T02:15:49;98134.16;;;9.61;100.00
24031;BME280;12240;51.142;22.486;2023-04-25T02:18:19;98135.97;;;9.60;100.00
24031;BME280;12240;51.142;22.486;2023-04-25T02:20:49;98137.50;;;9.55;100.00
24031;BME280;12240;51.142;22.486;2023-04-25T02:23:17;98141.63;;;9.57;100.00
24031;BME280;12240;51.142;22.486;2023-04-25T02:25:46;98132.31;;;9.61;100.00
24031;BME280;12240;51.142;22.486;2023-04-25T02:28:15;98129.53;;;9.55;100.00
24031;BME280;12240;51.142;22.486;2023-04-25T02:30:43;98130.06;;;9.50;100.00
24031;BME280;12240;51.142;22.486;2023-04-25T02:33:11;98124.44;;;9.45;100.00
24031;BME280;12240;51.142;22.486;2023-04-25T02:35:39;98125.38;;;9.29;100.00
24031;BME280;12240;51.142;22.486;2023-04-25T02:38:08;98125.38;;;9.29;100.00
24031;BME280;12240;51.142;22.486;2023-04-25T02:40:35;98130.19;;;9.26;100.00
24031;BME280;12240;51.142;22.486;2023-04-25T02:43:04;98132.56;;;9.21;100.00
24031;BME280;12240;51.142;22.486;2023-04-25T02:45:32;98127.91;;;9.23;100.00
24031;BME280;12240;51.142;22.486;2023-04-25T02:48:00;98129.03;;;9.28;100.00
24031;BME280;12240;51.142;22.486;2023-04-25T02:50:31;98125.50;;;9.36;100.00
24031;BME280;12240;51.142;22.486;2023-04-25T02:53:00;98121.50;;;9.40;100.00
24031;BME280;12240;51.142;22.486;2023-04-25T02:55:34;98124.81;;;9.42;100.00
24031;BME280;12240;51.142;22.486;2023-04-25T02:58:04;98125.47;;;9.44;100.00
24031;BME280;12240;51.142;22.486;2023-04-25T03:00:43;98129.59;;;9.47;100.00
24031;BME280;12240;51.142;22.486;2023-04-25T03:03:14;98119.81;;;9.39;100.00
24031;BME280;12240;51.142;22.486;2023-04-25T03:05:45;98123.97;;;9.41;100.00
24031;BME280;12240;51.142;22.486;2023-04-25T03:08:18;98124.31;;;9.38;100.00
24031;BME280;12240;51.142;22.486;2023-04-25T03:10:46;98124.69;;;9.35;100.00
24031;BME280;12240;51.142;22.486;2023-04-25T03:13:16;98122.53;;;9.31;100.00
24031;BME280;12240;51.142;22.486;2023-04-25T03:15:44;98124.53;;;9.29;100.00
24031;BME280;12240;51.142;22.486;2023-04-25T03:18:12;98121.69;;;9.30;100.00
24031;BME280;12240;51.142;22.486;2023-04-25T03:20:40;98132.00;;;9.33;100.00
24031;BME280;12240;51.142;22.486;2023-04-25T03:23:09;98133.09;;;9.39;100.00
24031;BME280;12240;51.142;22.486;2023-04-25T03:25:40;98130.78;;;9.44;100.00
24031;BME280;12240;51.142;22.486;2023-04-25T03:28:08;98126.75;;;9.48;100.00
24031;BME280;12240;51.142;22.486;2023-04-25T03:30:37;98125.41;;;9.52;100.00
24031;BME280;12240;51.142;22.486;2023-04-25T03:33:05;98125.88;;;9.56;100.00
24031;BME280;12240;51.142;22.486;2023-04-25T03:35:33;98126.53;;;9.58;100.00
24031;BME280;12240;51.142;22.486;2023-04-25T03:38:01;98131.38;;;9.54;100.00
24031;BME280;12240;51.142;22.486;2023-04-25T03:40:34;98144.19;;;9.51;100.00
24031;BME280;12240;51.142;22.486;2023-04-25T03:43:15;98137.00;;;9.51;100.00
24031;BME280;12240;51.142;22.486;2023-04-25T03:45:50;98136.31;;;9.57;100.00
24031;BME280;12240;51.142;22.486;2023-04-25T03:48:21;98141.63;;;9.57;100.00
24031;BME280;12240;51.142;22.486;2023-04-25T03:50:50;98145.31;;;9.56;100.00
24031;BME280;12240;51.142;22.486;2023-04-25T03:53:18;98144.41;;;9.64;100.00
24031;BME280;12240;51.142;22.486;2023-04-25T03:56:06;98142.53;;;9.72;100.00
24031;BME280;12240;51.142;22.486;2023-04-25T03:58:36;98133.50;;;9.81;100.00
24031;BME280;12240;51.142;22.486;2023-04-25T04:01:08;98138.75;;;9.89;100.00
24031;BME280;12240;51.142;22.486;2023-04-25T04:03:39;98139.28;;;9.85;100.00
24031;BME280;12240;51.142;22.486;2023-04-25T04:06:08;98129.78;;;9.90;100.00
24031;BME280;12240;51.142;22.486;2023-04-25T04:08:40;98128.69;;;9.99;100.00
24031;BME280;12240;51.142;22.486;2023-04-25T04:11:10;98134.66;;;10.09;100.00
24031;BME280;12240;51.142;22.486;2023-04-25T04:13:38;98135.22;;;10.19;100.00
24031;BME280;12240;51.142;22.486;2023-04-25T04:16:07;98132.00;;;10.24;100.00
24031;BME280;12240;51.142;22.486;2023-04-25T04:18:35;98133.50;;;10.26;100.00
24031;BME280;12240;51.142;22.486;2023-04-25T04:21:04;98128.09;;;10.34;100.00
24031;BME280;12240;51.142;22.486;2023-04-25T04:23:35;98126.25;;;10.35;100.00
24031;BME280;12240;51.142;22.486;2023-04-25T04:26:07;98128.38;;;10.39;100.00
24031;BME280;12240;51.142;22.486;2023-04-25T04:28:39;98121.31;;;10.46;100.00
24031;BME280;12240;51.142;22.486;2023-04-25T04:31:22;98126.81;;;10.59;100.00
24031;BME280;12240;51.142;22.486;2023-04-25T04:33:53;98122.78;;;10.64;100.00
24031;BME280;12240;51.142;22.486;2023-04-25T04:36:21;98120.88;;;10.72;100.00
24031;BME280;12240;51.142;22.486;2023-04-25T04:38:51;98117.75;;;10.83;100.00
24031;BME280;12240;51.142;22.486;2023-04-25T04:41:32;98118.22;;;10.87;100.00
24031;BME280;12240;51.142;22.486;2023-04-25T04:44:35;98120.31;;;10.91;100.00
24031;BME280;12240;51.142;22.486;2023-04-25T04:47:24;98128.13;;;10.93;100.00
24031;BME280;12240;51.142;22.486;2023-04-25T04:50:16;98116.16;;;11.03;100.00
24031;BME280;12240;51.142;22.486;2023-04-25T04:53:06;98122.59;;;11.09;100.00
24031;BME280;12240;51.142;22.486;2023-04-25T04:55:50;98121.31;;;11.05;100.00
24031;BME280;12240;51.142;22.486;2023-04-25T04:58:37;98115.91;;;10.98;100.00
24031;BME280;12240;51.142;22.486;2023-04-25T05:01:19;98128.00;;;11.01;100.00
24031;BME280;12240;51.142;22.486;2023-04-25T05:03:57;98130.13;;;11.05;100.00
24031;BME280;12240;51.142;22.486;2023-04-25T05:06:48;98123.78;;;11.06;100.00
24031;BME280;12240;51.142;22.486;2023-04-25T05:09:31;98125.06;;;11.10;100.00
24031;BME280;12240;51.142;22.486;2023-04-25T05:12:23;98128.00;;;11.15;100.00
24031;BME280;12240;51.142;22.486;2023-04-25T05:15:00;98121.31;;;11.19;100.00
24031;BME280;12240;51.142;22.486;2023-04-25T05:17:50;98126.72;;;11.26;100.00
24031;BME280;12240;51.142;22.486;2023-04-25T05:20:31;98128.16;;;11.28;100.00
24031;BME280;12240;51.142;22.486;2023-04-25T05:23:19;98126.19;;;11.37;100.00
24031;BME280;12240;51.142;22.486;2023-04-25T05:26:13;98126.03;;;11.38;100.00
24031;BME280;12240;51.142;22.486;2023-04-25T05:29:01;98126.97;;;11.31;100.00
24031;BME280;12240;51.142;22.486;2023-04-25T05:31:58;98134.31;;;11.29;100.00
24031;BME280;12240;51.142;22.486;2023-04-25T05:34:26;98140.22;;;11.24;100.00
24031;BME280;12240;51.142;22.486;2023-04-25T05:37:01;98132.56;;;11.21;100.00
24031;BME280;12240;51.142;22.486;2023-04-25T05:39:31;98141.03;;;11.25;100.00
24031;BME280;12240;51.142;22.486;2023-04-25T05:42:14;98149.22;;;11.23;100.00
24031;BME280;12240;51.142;22.486;2023-04-25T05:45:07;98142.13;;;11.30;100.00
24031;BME280;12240;51.142;22.486;2023-04-25T05:47:45;98137.06;;;11.35;100.00
24031;BME280;12240;51.142;22.486;2023-04-25T05:50:46;98130.81;;;11.43;100.00
24031;BME280;12240;51.142;22.486;2023-04-25T05:53:35;98137.22;;;11.48;100.00
24031;BME280;12240;51.142;22.486;2023-04-25T05:56:04;98134.38;;;11.50;100.00
24031;BME280;12240;51.142;22.486;2023-04-25T05:58:32;98141.16;;;11.52;100.00
24031;BME280;12240;51.142;22.486;2023-04-25T06:01:01;98135.81;;;11.52;100.00
24031;BME280;12240;51.142;22.486;2023-04-25T06:03:30;98127.66;;;11.54;100.00
24031;BME280;12240;51.142;22.486;2023-04-25T06:05:59;98140.34;;;11.52;100.00
24031;BME280;12240;51.142;22.486;2023-04-25T06:08:27;98140.78;;;11.55;100.00
24031;BME280;12240;51.142;22.486;2023-04-25T06:10:55;98137.09;;;11.56;100.00
24031;BME280;12240;51.142;22.486;2023-04-25T06:13:24;98138.31;;;11.54;100.00
24031;BME280;12240;51.142;22.486;2023-04-25T06:15:53;98140.53;;;11.50;100.00
24031;BME280;12240;51.142;22.486;2023-04-25T06:18:21;98134.56;;;11.48;100.00
24031;BME280;12240;51.142;22.486;2023-04-25T06:20:49;98137.50;;;11.53;100.00
24031;BME280;12240;51.142;22.486;2023-04-25T06:23:19;98136.72;;;11.59;100.00
24031;BME280;12240;51.142;22.486;2023-04-25T06:25:59;98146.66;;;11.51;100.00
24031;BME280;12240;51.142;22.486;2023-04-25T06:28:28;98142.81;;;11.53;100.00
24031;BME280;12240;51.142;22.486;2023-04-25T06:30:56;98149.59;;;11.56;100.00
24031;BME280;12240;51.142;22.486;2023-04-25T06:33:24;98152.38;;;11.62;100.00
24031;BME280;12240;51.142;22.486;2023-04-25T06:35:54;98149.06;;;11.60;100.00
24031;BME280;12240;51.142;22.486;2023-04-25T06:38:26;98156.16;;;11.39;100.00
24031;BME280;12240;51.142;22.486;2023-04-25T06:40:56;98150.69;;;11.26;100.00
24031;BME280;12240;51.142;22.486;2023-04-25T06:43:27;98152.38;;;11.12;100.00
24031;BME280;12240;51.142;22.486;2023-04-25T06:46:26;98147.38;;;11.09;100.00
24031;BME280;12240;51.142;22.486;2023-04-25T06:48:57;98142.81;;;11.18;100.00
24031;BME280;12240;51.142;22.486;2023-04-25T06:51:25;98145.81;;;11.29;100.00
24031;BME280;12240;51.142;22.486;2023-04-25T06:53:57;98138.81;;;11.28;100.00
24031;BME280;12240;51.142;22.486;2023-04-25T06:56:35;98141.31;;;11.30;100.00
24031;BME280;12240;51.142;22.486;2023-04-25T06:59:11;98134.03;;;11.38;100.00
24031;BME280;12240;51.142;22.486;2023-04-25T07:01:41;98140.63;;;11.42;100.00
24031;BME280;12240;51.142;22.486;2023-04-25T07:04:15;98135.75;;;11.46;100.00
24031;BME280;12240;51.142;22.486;2023-04-25T07:06:51;98130.41;;;11.46;100.00
24031;BME280;12240;51.142;22.486;2023-04-25T07:09:25;98129.69;;;11.52;100.00
24031;BME280;12240;51.142;22.486;2023-04-25T07:11:53;98133.59;;;11.56;100.00
24031;BME280;12240;51.142;22.486;2023-04-25T07:14:21;98134.06;;;11.59;100.00
24031;BME280;12240;51.142;22.486;2023-04-25T07:16:49;98134.50;;;11.63;100.00
24031;BME280;12240;51.142;22.486;2023-04-25T07:19:19;98136.47;;;11.69;100.00
24031;BME280;12240;51.142;22.486;2023-04-25T07:21:47;98138.56;;;11.73;100.00
24031;BME280;12240;51.142;22.486;2023-04-25T07:24:16;98133.03;;;11.75;100.00
24031;BME280;12240;51.142;22.486;2023-04-25T07:26:47;98132.53;;;11.86;100.00
24031;BME280;12240;51.142;22.486;2023-04-25T07:29:23;98132.78;;;11.91;100.00
24031;BME280;12240;51.142;22.486;2023-04-25T07:31:52;98135.31;;;11.99;100.00
24031;BME280;12240;51.142;22.486;2023-04-25T07:34:22;98131.06;;;12.05;100.00
24031;BME280;12240;51.142;22.486;2023-04-25T07:36:51;98129.53;;;12.17;100.00
24031;BME280;12240;51.142;22.486;2023-04-25T07:39:21;98135.75;;;12.24;100.00
24031;BME280;12240;51.142;22.486;2023-04-25T07:41:52;98133.97;;;12.31;100.00
24031;BME280;12240;51.142;22.486;2023-04-25T07:44:26;98135.72;;;12.45;100.00
24031;BME280;12240;51.142;22.486;2023-04-25T07:46:55;98133.09;;;12.51;100.00
24031;BME280;12240;51.142;22.486;2023-04-25T07:49:24;98135.09;;;12.43;100.00
24031;BME280;12240;51.142;22.486;2023-04-25T07:51:52;98136.16;;;12.48;100.00
24031;BME280;12240;51.142;22.486;2023-04-25T07:54:21;98131.25;;;12.24;100.00
24031;BME280;12240;51.142;22.486;2023-04-25T07:56:57;98133.91;;;12.03;100.00
24031;BME280;12240;51.142;22.486;2023-04-25T07:59:29;98128.72;;;11.95;100.00
24031;BME280;12240;51.142;22.486;2023-04-25T08:02:01;98136.44;;;11.90;100.00
24031;BME280;12240;51.142;22.486;2023-04-25T08:04:31;98137.72;;;11.73;100.00
24031;BME280;12240;51.142;22.486;2023-04-25T08:07:05;98141.69;;;11.62;100.00
24031;BME280;12240;51.142;22.486;2023-04-25T08:09:48;98140.97;;;11.68;100.00
24031;BME280;12240;51.142;22.486;2023-04-25T08:12:24;98147.69;;;11.50;100.00
24031;BME280;12240;51.142;22.486;2023-04-25T08:14:53;98135.91;;;11.59;100.00
24031;BME280;12240;51.142;22.486;2023-04-25T08:17:23;98146.47;;;11.52;100.00
24031;BME280;12240;51.142;22.486;2023-04-25T08:19:52;98140.69;;;11.49;100.00
24031;BME280;12240;51.142;22.486;2023-04-25T08:22:28;98145.28;;;11.55;100.00
24031;BME280;12240;51.142;22.486;2023-04-25T08:25:13;98141.91;;;11.46;100.00
24031;BME280;12240;51.142;22.486;2023-04-25T08:27:43;98133.28;;;11.44;100.00
24031;BME280;12240;51.142;22.486;2023-04-25T08:30:12;98134.91;;;11.45;100.00
24031;BME280;12240;51.142;22.486;2023-04-25T08:32:42;98135.25;;;11.21;100.00
24031;BME280;12240;51.142;22.486;2023-04-25T08:35:21;98135.34;;;11.28;100.00
24031;BME280;12240;51.142;22.486;2023-04-25T08:37:51;98131.84;;;11.27;100.00
24031;BME280;12240;51.142;22.486;2023-04-25T08:40:22;98136.34;;;11.27;100.00
24031;BME280;12240;51.142;22.486;2023-04-25T08:43:07;98134.97;;;11.16;100.00
24031;BME280;12240;51.142;22.486;2023-04-25T08:45:41;98141.59;;;11.20;100.00
24031;BME280;12240;51.142;22.486;2023-04-25T08:48:17;98138.66;;;11.15;100.00
24031;BME280;12240;51.142;22.486;2023-04-25T08:50:50;98146.66;;;11.30;100.00
24031;BME280;12240;51.142;22.486;2023-04-25T08:53:28;98135.88;;;11.23;100.00
24031;BME280;12240;51.142;22.486;2023-04-25T08:56:01;98142.44;;;11.21;100.00
24031;BME280;12240;51.142;22.486;2023-04-25T08:58:36;98142.44;;;11.21;100.00
24031;BME280;12240;51.142;22.486;2023-04-25T09:01:07;98143.69;;;11.25;100.00
24031;BME280;12240;51.142;22.486;2023-04-25T09:03:44;98144.34;;;11.27;100.00
24031;BME280;12240;51.142;22.486;2023-04-25T09:06:13;98144.78;;;11.45;100.00
24031;BME280;12240;51.142;22.486;2023-04-25T09:08:42;98147.72;;;11.35;100.00
24031;BME280;12240;51.142;22.486;2023-04-25T09:11:12;98147.72;;;11.35;100.00
24031;BME280;12240;51.142;22.486;2023-04-25T09:13:40;98154.06;;;11.34;100.00
24031;BME280;12240;51.142;22.486;2023-04-25T09:16:28;98154.16;;;11.41;100.00
24031;BME280;12240;51.142;22.486;2023-04-25T09:19:28;98155.88;;;11.48;100.00
24031;BME280;12240;51.142;22.486;2023-04-25T09:22:02;98154.84;;;11.49;100.00
24031;BME280;12240;51.142;22.486;2023-04-25T09:24:37;98151.81;;;11.52;100.00
24031;BME280;12240;51.142;22.486;2023-04-25T09:27:18;98153.94;;;11.57;100.00
24031;BME280;12240;51.142;22.486;2023-04-25T09:29:59;98152.00;;;11.51;100.00
24031;BME280;12240;51.142;22.486;2023-04-25T09:32:48;98149.53;;;11.49;100.00
24031;BME280;12240;51.142;22.486;2023-04-25T09:35:27;98151.34;;;11.49;100.00
24031;BME280;12240;51.142;22.486;2023-04-25T09:37:58;98155.44;;;11.45;100.00
24031;BME280;12240;51.142;22.486;2023-04-25T09:40:46;98155.06;;;11.48;100.00
24031;BME280;12240;51.142;22.486;2023-04-25T09:43:26;98151.09;;;11.44;100.00
24031;BME280;12240;51.142;22.486;2023-04-25T09:45:55;98158.56;;;11.34;100.00
24031;BME280;12240;51.142;22.486;2023-04-25T09:48:29;98150.94;;;11.31;100.00
24031;BME280;12240;51.142;22.486;2023-04-25T09:53:35;98153.16;;;11.27;100.00
24031;BME280;12240;51.142;22.486;2023-04-25T09:56:16;98150.41;;;11.21;100.00
24031;BME280;12240;51.142;22.486;2023-04-25T09:58:45;98153.63;;;11.31;100.00
24031;BME280;12240;51.142;22.486;2023-04-25T10:01:16;98150.84;;;11.39;100.00
24031;BME280;12240;51.142;22.486;2023-04-25T10:03:59;98153.41;;;11.47;100.00
24031;BME280;12240;51.142;22.486;2023-04-25T10:06:43;98155.75;;;11.56;100.00
24031;BME280;12240;51.142;22.486;2023-04-25T10:09:12;98152.56;;;11.46;100.00
24031;BME280;12240;51.142;22.486;2023-04-25T10:11:43;98150.75;;;11.47;100.00
24031;BME280;12240;51.142;22.486;2023-04-25T10:14:13;98148.25;;;11.45;100.00
24031;BME280;12240;51.142;22.486;2023-04-25T10:16:42;98149.28;;;11.44;100.00
24031;BME280;12240;51.142;22.486;2023-04-25T10:19:11;98152.50;;;11.40;100.00
24031;BME280;12240;51.142;22.486;2023-04-25T10:24:25;98147.88;;;11.48;100.00
24031;BME280;12240;51.142;22.486;2023-04-25T10:26:53;98143.75;;;11.46;100.00
24031;BME280;12240;51.142;22.486;2023-04-25T10:29:24;98150.28;;;11.43;100.00
24031;BME280;12240;51.142;22.486;2023-04-25T10:31:54;98150.38;;;11.50;100.00
24031;BME280;12240;51.142;22.486;2023-04-25T10:34:42;98149.28;;;11.44;100.00
24031;BME280;12240;51.142;22.486;2023-04-25T10:37:12;98150.50;;;11.42;100.00
24031;BME280;12240;51.142;22.486;2023-04-25T10:39:41;98148.56;;;11.36;100.00
24031;BME280;12240;51.142;22.486;2023-04-25T10:42:10;98148.16;;;11.39;100.00
24031;BME280;12240;51.142;22.486;2023-04-25T10:44:40;98147.19;;;11.40;100.00
24031;BME280;12240;51.142;22.486;2023-04-25T10:47:08;98141.91;;;11.46;100.00
24031;BME280;12240;51.142;22.486;2023-04-25T10:49:42;98139.81;;;11.42;100.00
24031;BME280;12240;51.142;22.486;2023-04-25T10:54:56;98144.25;;;11.56;100.00
24031;BME280;12240;51.142;22.486;2023-04-25T10:57:45;98142.75;;;11.47;100.00
24031;BME280;12240;51.142;22.486;2023-04-25T11:00:20;98141.72;;;11.48;100.00
24031;BME280;12240;51.142;22.486;2023-04-25T11:03:00;98137.41;;;11.47;100.00
24031;BME280;12240;51.142;22.486;2023-04-25T11:05:34;98137.78;;;11.44;100.00
24031;BME280;12240;51.142;22.486;2023-04-25T11:08:16;98136.00;;;11.30;100.00
24031;BME280;12240;51.142;22.486;2023-04-25T11:10:52;98151.91;;;11.09;100.00
24031;BME280;12240;51.142;22.486;2023-04-25T11:13:21;98157.44;;;10.41;100.00
24031;BME280;12240;51.142;22.486;2023-04-25T11:15:52;98151.38;;;10.32;100.00
24031;BME280;12240;51.142;22.486;2023-04-25T11:18:42;98145.88;;;10.19;100.00
24031;BME280;12240;51.142;22.486;2023-04-25T11:21:11;98149.06;;;9.92;100.00
24031;BME280;12240;51.142;22.486;2023-04-25T11:23:39;98151.63;;;10.00;100.00
24031;BME280;12240;51.142;22.486;2023-04-25T11:26:08;98150.31;;;9.96;100.00
24031;BME280;12240;51.142;22.486;2023-04-25T11:28:36;98136.94;;;10.12;100.00
24031;BME280;12240;51.142;22.486;2023-04-25T11:31:04;98145.28;;;10.09;100.00
24031;BME280;12240;51.142;22.486;2023-04-25T11:33:33;98127.75;;;10.15;100.00
24031;BME280;12240;51.142;22.486;2023-04-25T11:36:01;98154.28;;;10.00;100.00
24031;BME280;12240;51.142;22.486;2023-04-25T11:38:29;98157.66;;;9.94;100.00
24031;BME280;12240;51.142;22.486;2023-04-25T11:40:58;98154.03;;;9.87;100.00
24031;BME280;12240;51.142;22.486;2023-04-25T11:43:27;98168.63;;;9.69;100.00
24031;BME280;12240;51.142;22.486;2023-04-25T11:45:55;98162.50;;;9.91;100.00
24031;BME280;12240;51.142;22.486;2023-04-25T11:48:24;98171.56;;;9.82;100.00
24031;BME280;12240;51.142;22.486;2023-04-25T11:50:54;98170.63;;;9.67;100.00
24031;BME280;12240;51.142;22.486;2023-04-25T11:53:24;98169.94;;;9.73;100.00
24031;BME280;12240;51.142;22.486;2023-04-25T11:55:53;98171.13;;;9.70;100.00
24031;BME280;12240;51.142;22.486;2023-04-25T11:58:22;98168.94;;;9.74;100.00
24031;BME280;12240;51.142;22.486;2023-04-25T12:00:51;98166.88;;;9.61;100.00
24031;BME280;12240;51.142;22.486;2023-04-25T12:03:19;98172.50;;;9.58;100.00
24031;BME280;12240;51.142;22.486;2023-04-25T12:05:48;98172.66;;;9.65;100.00
24031;BME280;12240;51.142;22.486;2023-04-25T12:08:21;98168.59;;;9.46;100.00
24031;BME280;12240;51.142;22.486;2023-04-25T12:10:50;98174.53;;;9.56;100.00
24031;BME280;12240;51.142;22.486;2023-04-25T12:13:24;98167.59;;;9.78;100.00
24031;BME280;12240;51.142;22.486;2023-04-25T12:15:56;98168.47;;;9.70;100.00
24031;BME280;12240;51.142;22.486;2023-04-25T12:18:25;98168.88;;;9.59;100.00
24031;BME280;12240;51.142;22.486;2023-04-25T12:20:57;98172.19;;;9.61;100.00
24031;BME280;12240;51.142;22.486;2023-04-25T12:23:29;98169.16;;;9.64;100.00
24031;BME280;12240;51.142;22.486;2023-04-25T12:25:59;98179.81;;;9.64;100.00
24031;BME280;12240;51.142;22.486;2023-04-25T12:28:27;98160.53;;;9.62;100.00
24031;BME280;12240;51.142;22.486;2023-04-25T12:31:08;98171.84;;;9.64;100.00
24031;BME280;12240;51.142;22.486;2023-04-25T12:33:38;98174.91;;;9.76;100.00
24031;BME280;12240;51.142;22.486;2023-04-25T12:36:07;98170.06;;;9.79;100.00
24031;BME280;12240;51.142;22.486;2023-04-25T12:38:42;98171.59;;;9.74;100.00
24031;BME280;12240;51.142;22.486;2023-04-25T12:41:11;98181.13;;;9.68;100.00
24031;BME280;12240;51.142;22.486;2023-04-25T12:43:39;98179.69;;;9.58;100.00
24031;BME280;12240;51.142;22.486;2023-04-25T12:46:07;98180.91;;;9.39;100.00
24031;BME280;12240;51.142;22.486;2023-04-25T12:48:36;98172.63;;;9.42;100.00
24031;BME280;12240;51.142;22.486;2023-04-25T12:51:06;98188.34;;;9.52;100.00
24031;BME280;12240;51.142;22.486;2023-04-25T12:53:35;98187.47;;;9.28;100.00
24031;BME280;12240;51.142;22.486;2023-04-25T12:56:06;98183.44;;;9.40;100.00
24031;BME280;12240;51.142;22.486;2023-04-25T12:58:35;98185.59;;;9.37;100.00
24031;BME280;12240;51.142;22.486;2023-04-25T13:01:04;98177.34;;;9.24;100.00
24031;BME280;12240;51.142;22.486;2023-04-25T13:03:33;98185.31;;;9.24;100.00
24031;BME280;12240;51.142;22.486;2023-04-25T13:06:02;98174.78;;;9.08;100.00
24031;BME280;12240;51.142;22.486;2023-04-25T13:08:31;98185.06;;;9.11;100.00
24031;BME280;12240;51.142;22.486;2023-04-25T13:10:59;98183.38;;;9.18;100.00
24031;BME280;12240;51.142;22.486;2023-04-25T13:13:29;98180.88;;;9.16;100.00
24031;BME280;12240;51.142;22.486;2023-04-25T13:15:58;98178.06;;;9.10;100.00
24031;BME280;12240;51.142;22.486;2023-04-25T13:18:26;98154.69;;;9.05;100.00